Zionsville, Pennsylvania
Current Conditions -  °F | °C
As of 6:55 AM on Thursday 27 Nov 2014 (Local Time) from KXLL Reporting Station
Light Snow Light Snow  
Wind Chill: 32°   Ceiling: 2700
Heat Index: 32°   Visibility: 5mi
Dew Point: 32°   Wind: 3mph
Humidity: 100%   Direction: 220°SW
Pressure: 29.99"   Gusts: NA
Location:  40.48°N, 75.51°W
Report Text: KXLL 271155Z AUTO 22003KT 5SM -SN SCT009 BKN027 OVC039 00/00 A2999 RMK AO2
Loading
Personal Weather Stations






























Interactive Weather Map New forecast layout! Learn more

10-Day Weather Forecast

Advertisements
Track Severe Weather on mobile